sensor_id;sensor_type;location;lat;lon;timestamp;P1;durP1;ratioP1;P2;durP2;ratioP2
59770;SDS011;45649;53.014;6.600;2022-09-21T00:01:03;3.57;;;2.10;;
59770;SDS011;45649;53.014;6.600;2022-09-21T00:03:29;2.57;;;1.73;;
59770;SDS011;45649;53.014;6.600;2022-09-21T00:06:04;2.67;;;1.70;;
59770;SDS011;45649;53.014;6.600;2022-09-21T00:08:31;4.83;;;1.50;;
59770;SDS011;45649;53.014;6.600;2022-09-21T00:10:59;2.10;;;1.60;;
59770;SDS011;45649;53.014;6.600;2022-09-21T00:13:25;1.47;;;1.37;;
59770;SDS011;45649;53.014;6.600;2022-09-21T00:15:55;3.27;;;1.67;;
59770;SDS011;45649;53.014;6.600;2022-09-21T00:18:22;2.73;;;1.50;;
59770;SDS011;45649;53.014;6.600;2022-09-21T00:20:48;2.40;;;1.50;;
59770;SDS011;45649;53.014;6.600;2022-09-21T00:23:16;1.50;;;1.40;;
59770;SDS011;45649;53.014;6.600;2022-09-21T00:25:43;1.43;;;1.30;;
59770;SDS011;45649;53.014;6.600;2022-09-21T00:28:09;1.60;;;1.50;;
59770;SDS011;45649;53.014;6.600;2022-09-21T00:30:37;2.60;;;1.50;;
59770;SDS011;45649;53.014;6.600;2022-09-21T00:33:03;1.97;;;1.47;;
59770;SDS011;45649;53.014;6.600;2022-09-21T00:35:31;1.90;;;1.40;;
59770;SDS011;45649;53.014;6.600;2022-09-21T00:38:01;1.60;;;1.50;;
59770;SDS011;45649;53.014;6.600;2022-09-21T00:40:27;2.27;;;1.47;;
59770;SDS011;45649;53.014;6.600;2022-09-21T00:43:08;1.73;;;1.50;;
59770;SDS011;45649;53.014;6.600;2022-09-21T00:45:35;2.30;;;1.30;;
59770;SDS011;45649;53.014;6.600;2022-09-21T00:48:02;1.70;;;1.50;;
59770;SDS011;45649;53.014;6.600;2022-09-21T00:50:28;3.27;;;1.60;;
59770;SDS011;45649;53.014;6.600;2022-09-21T00:52:55;3.57;;;1.63;;
59770;SDS011;45649;53.014;6.600;2022-09-21T00:55:31;3.30;;;2.00;;
59770;SDS011;45649;53.014;6.600;2022-09-21T00:58:00;2.80;;;1.77;;
59770;SDS011;45649;53.014;6.600;2022-09-21T01:00:28;4.03;;;2.30;;
59770;SDS011;45649;53.014;6.600;2022-09-21T01:02:55;2.87;;;2.10;;
59770;SDS011;45649;53.014;6.600;2022-09-21T01:05:26;2.27;;;1.90;;
59770;SDS011;45649;53.014;6.600;2022-09-21T01:07:52;2.70;;;1.70;;
59770;SDS011;45649;53.014;6.600;2022-09-21T01:10:18;2.90;;;1.93;;
59770;SDS011;45649;53.014;6.600;2022-09-21T01:22:55;1.97;;;1.77;;
59770;SDS011;45649;53.014;6.600;2022-09-21T01:30:26;2.20;;;1.60;;
59770;SDS011;45649;53.014;6.600;2022-09-21T01:33:12;2.60;;;2.00;;
59770;SDS011;45649;53.014;6.600;2022-09-21T01:35:51;2.70;;;1.70;;
59770;SDS011;45649;53.014;6.600;2022-09-21T01:38:23;2.50;;;1.77;;
59770;SDS011;45649;53.014;6.600;2022-09-21T01:40:52;2.07;;;1.87;;
59770;SDS011;45649;53.014;6.600;2022-09-21T01:43:27;3.50;;;1.60;;
59770;SDS011;45649;53.014;6.600;2022-09-21T01:45:55;3.27;;;1.80;;
59770;SDS011;45649;53.014;6.600;2022-09-21T01:48:26;2.13;;;1.70;;
59770;SDS011;45649;53.014;6.600;2022-09-21T01:50:53;2.40;;;1.80;;
59770;SDS011;45649;53.014;6.600;2022-09-21T01:53:34;3.03;;;1.93;;
59770;SDS011;45649;53.014;6.600;2022-09-21T01:56:17;2.17;;;1.90;;
59770;SDS011;45649;53.014;6.600;2022-09-21T01:58:46;2.80;;;2.10;;
59770;SDS011;45649;53.014;6.600;2022-09-21T02:01:17;3.27;;;2.10;;
59770;SDS011;45649;53.014;6.600;2022-09-21T02:03:51;1.50;;;1.40;;
59770;SDS011;45649;53.014;6.600;2022-09-21T02:06:18;1.70;;;1.47;;
59770;SDS011;45649;53.014;6.600;2022-09-21T02:08:45;1.63;;;1.53;;
59770;SDS011;45649;53.014;6.600;2022-09-21T02:11:12;3.17;;;1.83;;
59770;SDS011;45649;53.014;6.600;2022-09-21T02:13:39;2.53;;;1.80;;
59770;SDS011;45649;53.014;6.600;2022-09-21T02:21:00;2.83;;;1.50;;
59770;SDS011;45649;53.014;6.600;2022-09-21T02:23:34;1.47;;;1.47;;
59770;SDS011;45649;53.014;6.600;2022-09-21T02:26:03;3.83;;;1.70;;
59770;SDS011;45649;53.014;6.600;2022-09-21T02:28:38;1.70;;;1.60;;
59770;SDS011;45649;53.014;6.600;2022-09-21T02:33:42;1.70;;;1.60;;
59770;SDS011;45649;53.014;6.600;2022-09-21T02:36:25;1.83;;;1.70;;
59770;SDS011;45649;53.014;6.600;2022-09-21T02:39:05;2.20;;;1.50;;
59770;SDS011;45649;53.014;6.600;2022-09-21T02:44:06;2.03;;;1.87;;
59770;SDS011;45649;53.014;6.600;2022-09-21T02:46:40;3.37;;;1.60;;
59770;SDS011;45649;53.014;6.600;2022-09-21T02:49:12;2.35;;;1.98;;
59770;SDS011;45649;53.014;6.600;2022-09-21T02:51:43;3.00;;;1.83;;
59770;SDS011;45649;53.014;6.600;2022-09-21T02:54:12;1.90;;;1.80;;
59770;SDS011;45649;53.014;6.600;2022-09-21T02:56:39;2.83;;;1.90;;
59770;SDS011;45649;53.014;6.600;2022-09-21T02:59:06;3.40;;;1.97;;
59770;SDS011;45649;53.014;6.600;2022-09-21T03:01:32;3.23;;;1.70;;
59770;SDS011;45649;53.014;6.600;2022-09-21T03:03:59;1.70;;;1.60;;
59770;SDS011;45649;53.014;6.600;2022-09-21T03:06:26;1.93;;;1.83;;
59770;SDS011;45649;53.014;6.600;2022-09-21T03:08:52;4.00;;;1.90;;
59770;SDS011;45649;53.014;6.600;2022-09-21T03:11:18;3.67;;;1.90;;
59770;SDS011;45649;53.014;6.600;2022-09-21T03:13:45;2.03;;;1.93;;
59770;SDS011;45649;53.014;6.600;2022-09-21T03:16:11;2.60;;;2.40;;
59770;SDS011;45649;53.014;6.600;2022-09-21T03:18:37;3.53;;;2.50;;
59770;SDS011;45649;53.014;6.600;2022-09-21T03:21:05;3.53;;;2.47;;
59770;SDS011;45649;53.014;6.600;2022-09-21T03:23:31;3.97;;;2.20;;
59770;SDS011;45649;53.014;6.600;2022-09-21T03:25:58;2.83;;;2.30;;
59770;SDS011;45649;53.014;6.600;2022-09-21T03:28:25;2.00;;;1.90;;
59770;SDS011;45649;53.014;6.600;2022-09-21T03:30:51;3.03;;;2.23;;
59770;SDS011;45649;53.014;6.600;2022-09-21T03:33:17;3.70;;;2.10;;
59770;SDS011;45649;53.014;6.600;2022-09-21T03:35:43;2.30;;;2.13;;
59770;SDS011;45649;53.014;6.600;2022-09-21T03:38:10;3.00;;;2.00;;
59770;SDS011;45649;53.014;6.600;2022-09-21T03:40:36;2.00;;;1.90;;
59770;SDS011;45649;53.014;6.600;2022-09-21T03:43:03;2.10;;;1.80;;
59770;SDS011;45649;53.014;6.600;2022-09-21T03:45:29;2.17;;;1.83;;
59770;SDS011;45649;53.014;6.600;2022-09-21T03:47:55;2.93;;;2.00;;
59770;SDS011;45649;53.014;6.600;2022-09-21T03:50:22;2.67;;;1.90;;
59770;SDS011;45649;53.014;6.600;2022-09-21T03:52:49;2.10;;;1.90;;
59770;SDS011;45649;53.014;6.600;2022-09-21T03:55:15;2.17;;;1.97;;
59770;SDS011;45649;53.014;6.600;2022-09-21T03:57:41;2.40;;;1.83;;
59770;SDS011;45649;53.014;6.600;2022-09-21T04:00:08;2.00;;;1.57;;
59770;SDS011;45649;53.014;6.600;2022-09-21T04:02:35;2.83;;;1.80;;
59770;SDS011;45649;53.014;6.600;2022-09-21T04:05:02;2.23;;;2.03;;
59770;SDS011;45649;53.014;6.600;2022-09-21T04:07:31;2.97;;;1.90;;
59770;SDS011;45649;53.014;6.600;2022-09-21T04:10:04;2.00;;;1.83;;
59770;SDS011;45649;53.014;6.600;2022-09-21T04:12:31;2.17;;;1.57;;
59770;SDS011;45649;53.014;6.600;2022-09-21T04:14:58;2.53;;;1.80;;
59770;SDS011;45649;53.014;6.600;2022-09-21T04:17:25;2.53;;;1.90;;
59770;SDS011;45649;53.014;6.600;2022-09-21T04:19:51;1.80;;;1.70;;
59770;SDS011;45649;53.014;6.600;2022-09-21T04:22:17;1.97;;;1.77;;
59770;SDS011;45649;53.014;6.600;2022-09-21T04:24:43;3.37;;;1.83;;
59770;SDS011;45649;53.014;6.600;2022-09-21T04:27:10;2.10;;;2.00;;
59770;SDS011;45649;53.014;6.600;2022-09-21T04:29:37;1.93;;;1.83;;
59770;SDS011;45649;53.014;6.600;2022-09-21T04:32:03;2.10;;;1.90;;
59770;SDS011;45649;53.014;6.600;2022-09-21T04:34:29;1.97;;;1.80;;
59770;SDS011;45649;53.014;6.600;2022-09-21T04:36:56;2.37;;;1.80;;
59770;SDS011;45649;53.014;6.600;2022-09-21T04:39:22;1.90;;;1.80;;
59770;SDS011;45649;53.014;6.600;2022-09-21T04:41:49;2.10;;;1.90;;
59770;SDS011;45649;53.014;6.600;2022-09-21T04:44:15;1.90;;;1.80;;
59770;SDS011;45649;53.014;6.600;2022-09-21T04:46:43;2.23;;;1.70;;
59770;SDS011;45649;53.014;6.600;2022-09-21T04:49:09;3.03;;;1.87;;
59770;SDS011;45649;53.014;6.600;2022-09-21T04:51:35;2.60;;;1.90;;
59770;SDS011;45649;53.014;6.600;2022-09-21T04:54:02;1.77;;;1.67;;
59770;SDS011;45649;53.014;6.600;2022-09-21T04:56:28;1.70;;;1.60;;
59770;SDS011;45649;53.014;6.600;2022-09-21T04:58:54;3.27;;;1.50;;
59770;SDS011;45649;53.014;6.600;2022-09-21T05:01:20;1.60;;;1.50;;
59770;SDS011;45649;53.014;6.600;2022-09-21T05:03:46;2.00;;;1.73;;
59770;SDS011;45649;53.014;6.600;2022-09-21T05:06:13;2.60;;;1.70;;
59770;SDS011;45649;53.014;6.600;2022-09-21T05:08:39;4.13;;;2.13;;
59770;SDS011;45649;53.014;6.600;2022-09-21T05:11:24;2.40;;;1.60;;
59770;SDS011;45649;53.014;6.600;2022-09-21T05:13:51;1.90;;;1.80;;
59770;SDS011;45649;53.014;6.600;2022-09-21T05:16:17;1.90;;;1.80;;
59770;SDS011;45649;53.014;6.600;2022-09-21T05:18:43;1.70;;;1.60;;
59770;SDS011;45649;53.014;6.600;2022-09-21T05:21:13;1.97;;;1.80;;
59770;SDS011;45649;53.014;6.600;2022-09-21T05:23:39;2.10;;;1.90;;
59770;SDS011;45649;53.014;6.600;2022-09-21T05:26:05;1.73;;;1.63;;
59770;SDS011;45649;53.014;6.600;2022-09-21T05:28:32;1.70;;;1.60;;
59770;SDS011;45649;53.014;6.600;2022-09-21T05:33:49;1.63;;;1.20;;
59770;SDS011;45649;53.014;6.600;2022-09-21T05:38:42;2.10;;;1.60;;
59770;SDS011;45649;53.014;6.600;2022-09-21T05:41:08;1.60;;;1.50;;
59770;SDS011;45649;53.014;6.600;2022-09-21T05:43:34;1.67;;;1.57;;
59770;SDS011;45649;53.014;6.600;2022-09-21T05:46:17;1.50;;;1.40;;
59770;SDS011;45649;53.014;6.600;2022-09-21T05:48:51;1.60;;;1.50;;
59770;SDS011;45649;53.014;6.600;2022-09-21T05:51:27;1.60;;;1.50;;
59770;SDS011;45649;53.014;6.600;2022-09-21T05:54:07;3.87;;;1.30;;
59770;SDS011;45649;53.014;6.600;2022-09-21T05:56:42;2.43;;;1.60;;
59770;SDS011;45649;53.014;6.600;2022-09-21T06:04:32;5.20;;;1.73;;
59770;SDS011;45649;53.014;6.600;2022-09-21T06:06:58;1.80;;;1.70;;
59770;SDS011;45649;53.014;6.600;2022-09-21T06:09:24;1.73;;;1.60;;
59770;SDS011;45649;53.014;6.600;2022-09-21T06:11:51;1.83;;;1.73;;
59770;SDS011;45649;53.014;6.600;2022-09-21T06:14:18;2.40;;;1.90;;
59770;SDS011;45649;53.014;6.600;2022-09-21T06:16:49;2.33;;;1.93;;
59770;SDS011;45649;53.014;6.600;2022-09-21T06:19:15;3.53;;;1.87;;
59770;SDS011;45649;53.014;6.600;2022-09-21T06:21:41;2.50;;;1.80;;
59770;SDS011;45649;53.014;6.600;2022-09-21T06:24:07;2.67;;;1.43;;
59770;SDS011;45649;53.014;6.600;2022-09-21T06:26:33;1.90;;;1.50;;
59770;SDS011;45649;53.014;6.600;2022-09-21T06:28:59;2.27;;;1.43;;
59770;SDS011;45649;53.014;6.600;2022-09-21T06:31:26;3.50;;;1.53;;
59770;SDS011;45649;53.014;6.600;2022-09-21T06:33:52;2.73;;;1.70;;
59770;SDS011;45649;53.014;6.600;2022-09-21T06:36:18;2.00;;;1.90;;
59770;SDS011;45649;53.014;6.600;2022-09-21T06:38:44;3.47;;;1.87;;
59770;SDS011;45649;53.014;6.600;2022-09-21T06:41:11;2.00;;;1.77;;
59770;SDS011;45649;53.014;6.600;2022-09-21T06:43:37;2.87;;;2.10;;
59770;SDS011;45649;53.014;6.600;2022-09-21T06:46:03;3.23;;;1.87;;
59770;SDS011;45649;53.014;6.600;2022-09-21T06:48:31;3.00;;;2.70;;
59770;SDS011;45649;53.014;6.600;2022-09-21T06:50:58;2.50;;;2.30;;
59770;SDS011;45649;53.014;6.600;2022-09-21T06:53:25;2.40;;;2.20;;
59770;SDS011;45649;53.014;6.600;2022-09-21T06:55:51;2.43;;;2.23;;
59770;SDS011;45649;53.014;6.600;2022-09-21T06:58:17;3.10;;;2.47;;
59770;SDS011;45649;53.014;6.600;2022-09-21T07:00:43;3.97;;;2.40;;
59770;SDS011;45649;53.014;6.600;2022-09-21T07:03:10;3.97;;;2.33;;
59770;SDS011;45649;53.014;6.600;2022-09-21T07:05:39;2.97;;;2.40;;
59770;SDS011;45649;53.014;6.600;2022-09-21T07:08:09;6.27;;;2.73;;
59770;SDS011;45649;53.014;6.600;2022-09-21T07:10:35;2.90;;;2.30;;
59770;SDS011;45649;53.014;6.600;2022-09-21T07:13:04;3.73;;;2.77;;
59770;SDS011;45649;53.014;6.600;2022-09-21T07:15:32;3.00;;;2.70;;
59770;SDS011;45649;53.014;6.600;2022-09-21T07:17:58;5.37;;;3.00;;
59770;SDS011;45649;53.014;6.600;2022-09-21T07:20:25;4.07;;;3.00;;
59770;SDS011;45649;53.014;6.600;2022-09-21T07:22:57;6.53;;;3.47;;
59770;SDS011;45649;53.014;6.600;2022-09-21T07:25:24;4.50;;;3.50;;
59770;SDS011;45649;53.014;6.600;2022-09-21T07:27:50;7.37;;;3.40;;
59770;SDS011;45649;53.014;6.600;2022-09-21T07:30:17;5.93;;;3.87;;
59770;SDS011;45649;53.014;6.600;2022-09-21T07:32:43;5.97;;;4.03;;
59770;SDS011;45649;53.014;6.600;2022-09-21T07:35:10;8.13;;;3.70;;
59770;SDS011;45649;53.014;6.600;2022-09-21T07:37:36;4.23;;;3.00;;
59770;SDS011;45649;53.014;6.600;2022-09-21T07:40:02;7.23;;;3.60;;
59770;SDS011;45649;53.014;6.600;2022-09-21T07:42:30;4.47;;;3.13;;
59770;SDS011;45649;53.014;6.600;2022-09-21T07:44:56;4.50;;;3.37;;
59770;SDS011;45649;53.014;6.600;2022-09-21T07:47:23;5.43;;;3.50;;
59770;SDS011;45649;53.014;6.600;2022-09-21T07:49:51;3.30;;;3.00;;
59770;SDS011;45649;53.014;6.600;2022-09-21T07:52:17;4.93;;;3.40;;
59770;SDS011;45649;53.014;6.600;2022-09-21T07:54:43;4.03;;;3.17;;
59770;SDS011;45649;53.014;6.600;2022-09-21T07:57:10;4.93;;;3.40;;
59770;SDS011;45649;53.014;6.600;2022-09-21T07:59:55;4.03;;;3.07;;
59770;SDS011;45649;53.014;6.600;2022-09-21T08:02:22;7.37;;;3.53;;
59770;SDS011;45649;53.014;6.600;2022-09-21T08:04:48;4.40;;;3.33;;
59770;SDS011;45649;53.014;6.600;2022-09-21T08:07:14;5.33;;;3.40;;
59770;SDS011;45649;53.014;6.600;2022-09-21T08:09:40;6.23;;;3.33;;
59770;SDS011;45649;53.014;6.600;2022-09-21T08:12:07;4.23;;;2.80;;
59770;SDS011;45649;53.014;6.600;2022-09-21T08:14:35;7.00;;;3.27;;
59770;SDS011;45649;53.014;6.600;2022-09-21T08:17:01;3.77;;;2.30;;
59770;SDS011;45649;53.014;6.600;2022-09-21T08:19:27;6.53;;;2.37;;
59770;SDS011;45649;53.014;6.600;2022-09-21T08:21:53;4.83;;;2.47;;
59770;SDS011;45649;53.014;6.600;2022-09-21T08:24:19;5.97;;;2.47;;
59770;SDS011;45649;53.014;6.600;2022-09-21T08:26:45;7.13;;;2.40;;
59770;SDS011;45649;53.014;6.600;2022-09-21T08:29:12;8.37;;;2.10;;
59770;SDS011;45649;53.014;6.600;2022-09-21T08:31:38;5.83;;;1.80;;
59770;SDS011;45649;53.014;6.600;2022-09-21T08:34:04;4.10;;;1.30;;
59770;SDS011;45649;53.014;6.600;2022-09-21T08:36:30;4.33;;;1.70;;
59770;SDS011;45649;53.014;6.600;2022-09-21T08:38:56;6.70;;;1.47;;
59770;SDS011;45649;53.014;6.600;2022-09-21T08:41:34;4.63;;;1.20;;
59770;SDS011;45649;53.014;6.600;2022-09-21T08:44:13;4.77;;;1.33;;
59770;SDS011;45649;53.014;6.600;2022-09-21T08:46:39;5.70;;;1.47;;
59770;SDS011;45649;53.014;6.600;2022-09-21T08:49:11;7.40;;;1.67;;
59770;SDS011;45649;53.014;6.600;2022-09-21T08:51:45;5.23;;;1.37;;
59770;SDS011;45649;53.014;6.600;2022-09-21T08:54:14;5.33;;;1.17;;
59770;SDS011;45649;53.014;6.600;2022-09-21T08:56:41;3.43;;;1.23;;
59770;SDS011;45649;53.014;6.600;2022-09-21T08:59:10;3.97;;;1.30;;
59770;SDS011;45649;53.014;6.600;2022-09-21T09:09:42;4.23;;;1.10;;
59770;SDS011;45649;53.014;6.600;2022-09-21T09:22:44;4.57;;;1.00;;
59770;SDS011;45649;53.014;6.600;2022-09-21T09:25:32;5.23;;;1.17;;
59770;SDS011;45649;53.014;6.600;2022-09-21T09:28:04;5.43;;;1.20;;
59770;SDS011;45649;53.014;6.600;2022-09-21T09:30:32;4.07;;;1.07;;
59770;SDS011;45649;53.014;6.600;2022-09-21T09:38:20;4.60;;;1.20;;
59770;SDS011;45649;53.014;6.600;2022-09-21T09:46:28;2.77;;;0.90;;
59770;SDS011;45649;53.014;6.600;2022-09-21T09:51:03;4.13;;;1.10;;
59770;SDS011;45649;53.014;6.600;2022-09-21T09:53:29;5.90;;;1.00;;
59770;SDS011;45649;53.014;6.600;2022-09-21T09:55:56;4.10;;;0.90;;
59770;SDS011;45649;53.014;6.600;2022-09-21T10:01:09;4.87;;;1.00;;
59770;SDS011;45649;53.014;6.600;2022-09-21T10:04:03;3.90;;;1.13;;
59770;SDS011;45649;53.014;6.600;2022-09-21T10:06:30;3.13;;;0.90;;
59770;SDS011;45649;53.014;6.600;2022-09-21T10:08:57;1.17;;;0.80;;
59770;SDS011;45649;53.014;6.600;2022-09-21T10:11:23;4.67;;;1.10;;
59770;SDS011;45649;53.014;6.600;2022-09-21T10:14:06;2.57;;;0.90;;
59770;SDS011;45649;53.014;6.600;2022-09-21T10:16:33;5.17;;;1.13;;
59770;SDS011;45649;53.014;6.600;2022-09-21T10:19:10;3.23;;;1.00;;
59770;SDS011;45649;53.014;6.600;2022-09-21T10:21:39;2.17;;;0.90;;
59770;SDS011;45649;53.014;6.600;2022-09-21T10:29:21;3.00;;;1.00;;
59770;SDS011;45649;53.014;6.600;2022-09-21T10:31:58;4.43;;;1.37;;
59770;SDS011;45649;53.014;6.600;2022-09-21T10:34:25;6.00;;;1.10;;
59770;SDS011;45649;53.014;6.600;2022-09-21T10:36:55;1.87;;;0.80;;
59770;SDS011;45649;53.014;6.600;2022-09-21T10:44:15;3.10;;;1.13;;
59770;SDS011;45649;53.014;6.600;2022-09-21T10:46:43;4.00;;;1.03;;
59770;SDS011;45649;53.014;6.600;2022-09-21T10:49:18;5.37;;;1.10;;
59770;SDS011;45649;53.014;6.600;2022-09-21T10:51:45;2.43;;;1.10;;
59770;SDS011;45649;53.014;6.600;2022-09-21T10:54:15;3.33;;;1.20;;
59770;SDS011;45649;53.014;6.600;2022-09-21T10:56:49;3.63;;;1.03;;
59770;SDS011;45649;53.014;6.600;2022-09-21T10:59:20;3.60;;;1.00;;
59770;SDS011;45649;53.014;6.600;2022-09-21T11:01:49;1.77;;;0.87;;
59770;SDS011;45649;53.014;6.600;2022-09-21T11:04:22;2.37;;;0.80;;
59770;SDS011;45649;53.014;6.600;2022-09-21T11:06:51;1.00;;;0.60;;
59770;SDS011;45649;53.014;6.600;2022-09-21T11:09:33;0.90;;;0.60;;
59770;SDS011;45649;53.014;6.600;2022-09-21T11:22:34;2.37;;;0.70;;
59770;SDS011;45649;53.014;6.600;2022-09-21T11:25:22;3.77;;;0.80;;
59770;SDS011;45649;53.014;6.600;2022-09-21T11:27:58;5.47;;;1.20;;
59770;SDS011;45649;53.014;6.600;2022-09-21T11:30:25;1.93;;;0.80;;
59770;SDS011;45649;53.014;6.600;2022-09-21T11:33:19;4.30;;;1.00;;
59770;SDS011;45649;53.014;6.600;2022-09-21T11:35:57;3.83;;;0.90;;
59770;SDS011;45649;53.014;6.600;2022-09-21T11:43:58;3.33;;;0.80;;
59770;SDS011;45649;53.014;6.600;2022-09-21T11:46:42;4.13;;;0.97;;
59770;SDS011;45649;53.014;6.600;2022-09-21T11:49:25;2.90;;;0.90;;
59770;SDS011;45649;53.014;6.600;2022-09-21T12:15:41;1.53;;;0.70;;
59770;SDS011;45649;53.014;6.600;2022-09-21T12:21:04;6.03;;;1.10;;
59770;SDS011;45649;53.014;6.600;2022-09-21T12:23:43;2.77;;;0.70;;
59770;SDS011;45649;53.014;6.600;2022-09-21T12:26:13;5.07;;;1.03;;
59770;SDS011;45649;53.014;6.600;2022-09-21T12:28:53;2.87;;;0.90;;
59770;SDS011;45649;53.014;6.600;2022-09-21T12:33:59;2.53;;;1.00;;
59770;SDS011;45649;53.014;6.600;2022-09-21T12:36:34;2.53;;;0.90;;
59770;SDS011;45649;53.014;6.600;2022-09-21T12:39:47;1.73;;;0.67;;
59770;SDS011;45649;53.014;6.600;2022-09-21T12:41:58;2.80;;;1.00;;
59770;SDS011;45649;53.014;6.600;2022-09-21T12:50:21;3.00;;;0.87;;
59770;SDS011;45649;53.014;6.600;2022-09-21T12:52:49;2.53;;;0.90;;
59770;SDS011;45649;53.014;6.600;2022-09-21T12:55:39;1.17;;;0.60;;
59770;SDS011;45649;53.014;6.600;2022-09-21T12:58:07;2.27;;;0.70;;
59770;SDS011;45649;53.014;6.600;2022-09-21T13:00:38;1.53;;;0.70;;
59770;SDS011;45649;53.014;6.600;2022-09-21T13:03:15;1.10;;;0.70;;
59770;SDS011;45649;53.014;6.600;2022-09-21T13:08:39;1.33;;;0.77;;
59770;SDS011;45649;53.014;6.600;2022-09-21T13:11:07;2.37;;;0.93;;
59770;SDS011;45649;53.014;6.600;2022-09-21T13:13:36;0.87;;;0.70;;
59770;SDS011;45649;53.014;6.600;2022-09-21T13:16:14;1.53;;;0.90;;
59770;SDS011;45649;53.014;6.600;2022-09-21T13:18:47;4.03;;;1.20;;
59770;SDS011;45649;53.014;6.600;2022-09-21T13:21:20;5.27;;;1.10;;
59770;SDS011;45649;53.014;6.600;2022-09-21T13:23:52;2.13;;;0.80;;
59770;SDS011;45649;53.014;6.600;2022-09-21T13:26:27;2.43;;;0.97;;
59770;SDS011;45649;53.014;6.600;2022-09-21T13:31:28;3.00;;;0.90;;
59770;SDS011;45649;53.014;6.600;2022-09-21T13:34:06;3.80;;;0.90;;
59770;SDS011;45649;53.014;6.600;2022-09-21T13:36:41;2.90;;;0.90;;
59770;SDS011;45649;53.014;6.600;2022-09-21T13:41:34;2.30;;;0.70;;
59770;SDS011;45649;53.014;6.600;2022-09-21T13:44:12;2.87;;;1.00;;
59770;SDS011;45649;53.014;6.600;2022-09-21T13:46:52;3.30;;;0.90;;
59770;SDS011;45649;53.014;6.600;2022-09-21T13:49:20;1.83;;;0.77;;
59770;SDS011;45649;53.014;6.600;2022-09-21T13:51:54;2.93;;;0.90;;
59770;SDS011;45649;53.014;6.600;2022-09-21T14:00:23;1.40;;;0.57;;
59770;SDS011;45649;53.014;6.600;2022-09-21T14:10:40;2.30;;;0.77;;
59770;SDS011;45649;53.014;6.600;2022-09-21T14:13:22;1.50;;;0.70;;
59770;SDS011;45649;53.014;6.600;2022-09-21T14:15:49;3.10;;;0.90;;
59770;SDS011;45649;53.014;6.600;2022-09-21T14:18:17;4.93;;;1.07;;
59770;SDS011;45649;53.014;6.600;2022-09-21T14:23:28;1.23;;;0.70;;
59770;SDS011;45649;53.014;6.600;2022-09-21T14:25:55;2.67;;;0.80;;
59770;SDS011;45649;53.014;6.600;2022-09-21T14:28:28;0.73;;;0.57;;
59770;SDS011;45649;53.014;6.600;2022-09-21T14:31:07;2.50;;;0.83;;
59770;SDS011;45649;53.014;6.600;2022-09-21T14:33:36;1.97;;;0.80;;
59770;SDS011;45649;53.014;6.600;2022-09-21T14:36:07;1.80;;;0.70;;
59770;SDS011;45649;53.014;6.600;2022-09-21T14:38:37;1.30;;;0.80;;
59770;SDS011;45649;53.014;6.600;2022-09-21T14:41:06;2.63;;;0.80;;
59770;SDS011;45649;53.014;6.600;2022-09-21T14:43:34;2.23;;;0.80;;
59770;SDS011;45649;53.014;6.600;2022-09-21T14:48:53;1.87;;;0.70;;
59770;SDS011;45649;53.014;6.600;2022-09-21T14:56:39;3.00;;;0.70;;
59770;SDS011;45649;53.014;6.600;2022-09-21T15:01:54;2.43;;;1.00;;
59770;SDS011;45649;53.014;6.600;2022-09-21T15:07:25;1.70;;;0.83;;
59770;SDS011;45649;53.014;6.600;2022-09-21T15:13:09;3.07;;;0.90;;
59770;SDS011;45649;53.014;6.600;2022-09-21T15:15:38;2.67;;;0.70;;
59770;SDS011;45649;53.014;6.600;2022-09-21T15:21:02;3.10;;;0.90;;
59770;SDS011;45649;53.014;6.600;2022-09-21T15:23:32;2.83;;;0.90;;
59770;SDS011;45649;53.014;6.600;2022-09-21T15:26:00;2.57;;;0.93;;
59770;SDS011;45649;53.014;6.600;2022-09-21T15:28:31;4.50;;;1.07;;
59770;SDS011;45649;53.014;6.600;2022-09-21T15:30:59;3.50;;;1.17;;
59770;SDS011;45649;53.014;6.600;2022-09-21T15:33:25;1.07;;;0.80;;
59770;SDS011;45649;53.014;6.600;2022-09-21T15:35:52;2.63;;;0.80;;
59770;SDS011;45649;53.014;6.600;2022-09-21T15:38:25;3.33;;;1.07;;
59770;SDS011;45649;53.014;6.600;2022-09-21T15:40:52;4.07;;;1.83;;
59770;SDS011;45649;53.014;6.600;2022-09-21T15:43:19;1.80;;;1.07;;
59770;SDS011;45649;53.014;6.600;2022-09-21T15:48:19;3.30;;;1.00;;
59770;SDS011;45649;53.014;6.600;2022-09-21T15:50:46;3.13;;;0.83;;
59770;SDS011;45649;53.014;6.600;2022-09-21T15:53:18;2.20;;;0.90;;
59770;SDS011;45649;53.014;6.600;2022-09-21T15:55:46;2.43;;;1.03;;
59770;SDS011;45649;53.014;6.600;2022-09-21T15:58:18;1.50;;;0.80;;
59770;SDS011;45649;53.014;6.600;2022-09-21T16:00:53;1.70;;;0.80;;
59770;SDS011;45649;53.014;6.600;2022-09-21T16:03:20;3.20;;;0.90;;
59770;SDS011;45649;53.014;6.600;2022-09-21T16:05:48;1.87;;;0.90;;
59770;SDS011;45649;53.014;6.600;2022-09-21T16:08:34;1.73;;;0.80;;
59770;SDS011;45649;53.014;6.600;2022-09-21T16:13:35;1.70;;;1.10;;
59770;SDS011;45649;53.014;6.600;2022-09-21T16:16:20;2.80;;;0.80;;
59770;SDS011;45649;53.014;6.600;2022-09-21T16:18:48;2.00;;;0.83;;
59770;SDS011;45649;53.014;6.600;2022-09-21T16:21:16;1.70;;;0.70;;
59770;SDS011;45649;53.014;6.600;2022-09-21T16:23:46;2.17;;;0.80;;
59770;SDS011;45649;53.014;6.600;2022-09-21T16:26:20;0.93;;;0.70;;
59770;SDS011;45649;53.014;6.600;2022-09-21T16:28:46;4.00;;;0.90;;
59770;SDS011;45649;53.014;6.600;2022-09-21T16:38:43;3.03;;;0.90;;
59770;SDS011;45649;53.014;6.600;2022-09-21T16:41:14;3.13;;;0.70;;
59770;SDS011;45649;53.014;6.600;2022-09-21T16:43:40;5.00;;;1.00;;
59770;SDS011;45649;53.014;6.600;2022-09-21T16:46:11;4.33;;;0.87;;
59770;SDS011;45649;53.014;6.600;2022-09-21T16:48:40;1.73;;;1.00;;
59770;SDS011;45649;53.014;6.600;2022-09-21T16:51:13;0.93;;;0.80;;
59770;SDS011;45649;53.014;6.600;2022-09-21T16:53:39;4.30;;;1.00;;
59770;SDS011;45649;53.014;6.600;2022-09-21T16:56:12;3.50;;;0.90;;
59770;SDS011;45649;53.014;6.600;2022-09-21T16:58:40;1.43;;;0.73;;
59770;SDS011;45649;53.014;6.600;2022-09-21T17:01:09;1.93;;;0.80;;
59770;SDS011;45649;53.014;6.600;2022-09-21T17:03:37;1.23;;;0.70;;
59770;SDS011;45649;53.014;6.600;2022-09-21T17:06:04;2.33;;;1.10;;
59770;SDS011;45649;53.014;6.600;2022-09-21T17:08:30;2.37;;;0.90;;
59770;SDS011;45649;53.014;6.600;2022-09-21T17:10:57;3.30;;;0.90;;
59770;SDS011;45649;53.014;6.600;2022-09-21T17:13:25;1.77;;;0.73;;
59770;SDS011;45649;53.014;6.600;2022-09-21T17:15:52;2.90;;;1.50;;
59770;SDS011;45649;53.014;6.600;2022-09-21T17:18:18;2.17;;;1.17;;
59770;SDS011;45649;53.014;6.600;2022-09-21T17:20:45;3.33;;;1.30;;
59770;SDS011;45649;53.014;6.600;2022-09-21T17:23:11;2.00;;;0.90;;
59770;SDS011;45649;53.014;6.600;2022-09-21T17:25:37;2.25;;;0.93;;
59770;SDS011;45649;53.014;6.600;2022-09-21T17:28:10;2.27;;;1.20;;
59770;SDS011;45649;53.014;6.600;2022-09-21T17:30:37;3.67;;;1.00;;
59770;SDS011;45649;53.014;6.600;2022-09-21T17:33:03;3.37;;;0.90;;
59770;SDS011;45649;53.014;6.600;2022-09-21T17:35:31;3.87;;;1.20;;
59770;SDS011;45649;53.014;6.600;2022-09-21T17:37:57;2.23;;;1.00;;
59770;SDS011;45649;53.014;6.600;2022-09-21T17:40:24;1.10;;;0.77;;
59770;SDS011;45649;53.014;6.600;2022-09-21T17:42:51;3.33;;;0.93;;
59770;SDS011;45649;53.014;6.600;2022-09-21T17:47:45;5.23;;;1.20;;
59770;SDS011;45649;53.014;6.600;2022-09-21T17:52:44;2.10;;;1.10;;
59770;SDS011;45649;53.014;6.600;2022-09-21T17:55:29;2.67;;;0.93;;
59770;SDS011;45649;53.014;6.600;2022-09-21T18:00:23;1.70;;;0.90;;
59770;SDS011;45649;53.014;6.600;2022-09-21T18:02:51;4.90;;;0.93;;
59770;SDS011;45649;53.014;6.600;2022-09-21T18:05:19;3.00;;;1.10;;
59770;SDS011;45649;53.014;6.600;2022-09-21T18:07:47;2.30;;;1.00;;
59770;SDS011;45649;53.014;6.600;2022-09-21T18:10:13;2.92;;;1.05;;
59770;SDS011;45649;53.014;6.600;2022-09-21T18:20:17;1.97;;;1.10;;
59770;SDS011;45649;53.014;6.600;2022-09-21T18:23:00;3.25;;;1.10;;
59770;SDS011;45649;53.014;6.600;2022-09-21T18:25:32;3.23;;;1.10;;